AMU821 RKSI-VMMC
Flight info
| Callsign | AMU821 |
|---|---|
| Flight time | 3h 13m |
| Altitude | 32000 |
| Route | BOPTA2Y BOPTA Z51 BEDES Y711 REMOS/N0463F340 Y711 MUGUS Y742 SALMI Q11 DRAKE A1 ELATO J101 NEDLE/N0411F220 J101 SMT |
| Aircraft | A321/M-SDE3FGHIRWY/LB1 |
Departure
| Time | 2026-04-20 15:25 |
|---|---|
| Airport | Incheon International Airport (RKSI) |
Arrival
| Time | 2026-04-20 18:38 |
|---|---|
| Airport | Macau International Airport (VMMC) |
| Time | Latitude | Longitude | Altitude | Speed | Heading |
|---|---|---|---|---|---|
| 2026-04-20 14:41 | 37.45340 | 126.44219 | 33 ft | 0 kts | 324° |
| 2026-04-20 15:14 | 37.45334 | 126.44224 | 32 ft | 4 kts | 323° |
| 2026-04-20 15:14 | 37.45314 | 126.44246 | 33 ft | 4 kts | 310° |
| 2026-04-20 15:14 | 37.45299 | 126.44273 | 32 ft | 4 kts | 287° |
| 2026-04-20 15:14 | 37.45298 | 126.44302 | 33 ft | 3 kts | 237° |
| 2026-04-20 15:15 | 37.45302 | 126.44309 | 33 ft | 0 kts | 234° |
| 2026-04-20 15:17 | 37.45302 | 126.44308 | 33 ft | 0 kts | 234° |
| 2026-04-20 15:17 | 37.45298 | 126.44301 | 33 ft | 2 kts | 234° |
| 2026-04-20 15:17 | 37.45285 | 126.44279 | 31 ft | 4 kts | 234° |
| 2026-04-20 15:18 | 37.45268 | 126.44248 | 32 ft | 5 kts | 234° |
| 2026-04-20 15:18 | 37.45246 | 126.44210 | 33 ft | 6 kts | 234° |
| 2026-04-20 15:18 | 37.45222 | 126.44167 | 31 ft | 7 kts | 234° |
| 2026-04-20 15:18 | 37.45188 | 126.44127 | 33 ft | 7 kts | 206° |
| 2026-04-20 15:19 | 37.45137 | 126.44131 | 33 ft | 8 kts | 168° |
| 2026-04-20 15:19 | 37.45090 | 126.44105 | 33 ft | 8 kts | 227° |
| 2026-04-20 15:19 | 37.45055 | 126.44046 | 33 ft | 9 kts | 234° |
| 2026-04-20 15:19 | 37.45018 | 126.43980 | 33 ft | 10 kts | 234° |
| 2026-04-20 15:20 | 37.44970 | 126.43920 | 33 ft | 10 kts | 205° |
| 2026-04-20 15:20 | 37.44906 | 126.43941 | 33 ft | 11 kts | 146° |
| 2026-04-20 15:20 | 37.44844 | 126.43996 | 31 ft | 11 kts | 144° |
| 2026-04-20 15:20 | 37.44778 | 126.44054 | 32 ft | 12 kts | 145° |
| 2026-04-20 15:21 | 37.44708 | 126.44115 | 33 ft | 13 kts | 145° |
| 2026-04-20 15:21 | 37.44635 | 126.44181 | 33 ft | 13 kts | 144° |
| 2026-04-20 15:21 | 37.44558 | 126.44249 | 33 ft | 14 kts | 144° |
| 2026-04-20 15:21 | 37.44493 | 126.44307 | 32 ft | 10 kts | 149° |
| 2026-04-20 15:22 | 37.44430 | 126.44304 | 33 ft | 8 kts | 214° |
| 2026-04-20 15:22 | 37.44422 | 126.44294 | 33 ft | 0 kts | 226° |
| 2026-04-20 15:22 | 37.44412 | 126.44278 | 33 ft | 5 kts | 232° |
| 2026-04-20 15:22 | 37.44392 | 126.44240 | 33 ft | 6 kts | 239° |
| 2026-04-20 15:23 | 37.44381 | 126.44186 | 33 ft | 7 kts | 269° |
| 2026-04-20 15:23 | 37.44398 | 126.44128 | 33 ft | 7 kts | 307° |
| 2026-04-20 15:23 | 37.44414 | 126.44111 | 31 ft | 0 kts | 323° |
| 2026-04-20 15:24 | 37.44473 | 126.44058 | 33 ft | 44 kts | 326° |
| 2026-04-20 15:24 | 37.44961 | 126.43623 | 33 ft | 124 kts | 325° |
| 2026-04-20 15:24 | 37.45837 | 126.42838 | 51 ft | 182 kts | 323° |
| 2026-04-20 15:25 | 37.46918 | 126.41878 | 622 ft | 198 kts | 323° |
| 2026-04-20 15:25 | 37.47936 | 126.40752 | 1616 ft | 193 kts | 313° |
| 2026-04-20 15:25 | 37.48826 | 126.39490 | 2341 ft | 194 kts | 308° |
| 2026-04-20 15:25 | 37.49706 | 126.38101 | 2548 ft | 214 kts | 304° |
| 2026-04-20 15:26 | 37.50333 | 126.36338 | 2840 ft | 227 kts | 282° |
| 2026-04-20 15:26 | 37.50451 | 126.34325 | 3325 ft | 233 kts | 271° |
| 2026-04-20 15:26 | 37.50476 | 126.32211 | 3736 ft | 248 kts | 272° |
| 2026-04-20 15:26 | 37.50519 | 126.30045 | 4421 ft | 253 kts | 273° |
| 2026-04-20 15:27 | 37.50572 | 126.27840 | 5200 ft | 252 kts | 274° |
| 2026-04-20 15:27 | 37.50631 | 126.25639 | 5945 ft | 251 kts | 275° |
| 2026-04-20 15:27 | 37.50688 | 126.23437 | 6658 ft | 251 kts | 276° |
| 2026-04-20 15:27 | 37.50619 | 126.21236 | 7342 ft | 257 kts | 263° |
| 2026-04-20 15:28 | 37.49941 | 126.19106 | 8026 ft | 270 kts | 243° |
| 2026-04-20 15:28 | 37.48603 | 126.17363 | 8673 ft | 287 kts | 221° |
| 2026-04-20 15:28 | 37.46746 | 126.16277 | 9285 ft | 300 kts | 207° |
| 2026-04-20 15:28 | 37.44763 | 126.15392 | 9920 ft | 306 kts | 202° |
| 2026-04-20 15:29 | 37.42615 | 126.15084 | 10550 ft | 320 kts | 182° |
| 2026-04-20 15:29 | 37.40373 | 126.15661 | 10964 ft | 342 kts | 162° |
| 2026-04-20 15:29 | 37.38279 | 126.17285 | 11101 ft | 369 kts | 137° |
| 2026-04-20 15:29 | 37.36518 | 126.19747 | 11237 ft | 389 kts | 131° |
| 2026-04-20 15:30 | 37.34713 | 126.22386 | 11355 ft | 406 kts | 131° |
| 2026-04-20 15:30 | 37.32823 | 126.25127 | 11484 ft | 424 kts | 132° |
| 2026-04-20 15:30 | 37.30860 | 126.27951 | 11810 ft | 434 kts | 132° |
| 2026-04-20 15:30 | 37.28858 | 126.30815 | 12337 ft | 438 kts | 133° |
| 2026-04-20 15:31 | 37.26826 | 126.33712 | 12900 ft | 442 kts | 133° |
| 2026-04-20 15:31 | 37.24791 | 126.36608 | 13431 ft | 446 kts | 134° |
| 2026-04-20 15:31 | 37.22721 | 126.39546 | 13974 ft | 449 kts | 134° |
| 2026-04-20 15:31 | 37.20469 | 126.42277 | 14487 ft | 450 kts | 144° |
| 2026-04-20 15:32 | 37.17930 | 126.44525 | 15025 ft | 447 kts | 155° |
| 2026-04-20 15:32 | 37.15149 | 126.46266 | 15556 ft | 444 kts | 165° |
| 2026-04-20 15:32 | 37.12302 | 126.47622 | 16071 ft | 445 kts | 166° |
| 2026-04-20 15:32 | 37.09404 | 126.48988 | 16606 ft | 447 kts | 167° |
| 2026-04-20 15:33 | 37.06490 | 126.50365 | 17114 ft | 449 kts | 167° |
| 2026-04-20 15:33 | 37.03551 | 126.51696 | 17582 ft | 447 kts | 172° |
| 2026-04-20 15:33 | 37.00555 | 126.52706 | 18021 ft | 447 kts | 174° |
| 2026-04-20 15:33 | 36.97535 | 126.53697 | 18483 ft | 449 kts | 174° |
| 2026-04-20 15:34 | 36.94504 | 126.54696 | 18921 ft | 452 kts | 175° |
| 2026-04-20 15:34 | 36.91454 | 126.55703 | 19321 ft | 455 kts | 175° |
| 2026-04-20 15:34 | 36.88380 | 126.56717 | 19720 ft | 458 kts | 175° |
| 2026-04-20 15:34 | 36.85294 | 126.57731 | 20102 ft | 460 kts | 175° |
| 2026-04-20 15:35 | 36.82199 | 126.58749 | 20496 ft | 463 kts | 175° |
| 2026-04-20 15:35 | 36.79067 | 126.59781 | 20883 ft | 466 kts | 175° |
| 2026-04-20 15:35 | 36.75927 | 126.60818 | 21296 ft | 468 kts | 175° |
| 2026-04-20 15:35 | 36.72773 | 126.61858 | 21685 ft | 470 kts | 176° |
| 2026-04-20 15:36 | 36.69600 | 126.62912 | 22036 ft | 473 kts | 175° |
| 2026-04-20 15:36 | 36.66409 | 126.63981 | 22402 ft | 476 kts | 175° |
| 2026-04-20 15:36 | 36.63196 | 126.65066 | 22773 ft | 478 kts | 175° |
| 2026-04-20 15:36 | 36.60019 | 126.66141 | 23104 ft | 481 kts | 175° |
| 2026-04-20 15:37 | 36.56789 | 126.67229 | 23421 ft | 483 kts | 176° |
| 2026-04-20 15:37 | 36.53524 | 126.68322 | 23738 ft | 486 kts | 176° |
| 2026-04-20 15:37 | 36.50253 | 126.69415 | 24054 ft | 488 kts | 176° |
| 2026-04-20 15:37 | 36.46965 | 126.70513 | 24395 ft | 490 kts | 176° |
| 2026-04-20 15:38 | 36.43676 | 126.71613 | 24752 ft | 491 kts | 176° |
| 2026-04-20 15:38 | 36.40362 | 126.72721 | 25064 ft | 494 kts | 176° |
| 2026-04-20 15:38 | 36.37034 | 126.73833 | 25397 ft | 495 kts | 176° |
| 2026-04-20 15:38 | 36.34786 | 126.74588 | 25671 ft | 495 kts | 176° |
| 2026-04-20 15:39 | 36.31467 | 126.75708 | 26030 ft | 495 kts | 176° |
| 2026-04-20 15:39 | 36.28134 | 126.76835 | 26396 ft | 495 kts | 177° |
| 2026-04-20 15:39 | 36.24846 | 126.77945 | 26784 ft | 495 kts | 177° |
| 2026-04-20 15:39 | 36.21534 | 126.79061 | 27200 ft | 494 kts | 177° |
| 2026-04-20 15:40 | 36.18211 | 126.80136 | 27611 ft | 487 kts | 181° |
| 2026-04-20 15:40 | 36.14913 | 126.80759 | 27980 ft | 472 kts | 189° |
| 2026-04-20 15:40 | 36.11688 | 126.80853 | 28350 ft | 457 kts | 196° |
| 2026-04-20 15:40 | 36.08540 | 126.80543 | 28739 ft | 451 kts | 199° |
| 2026-04-20 15:41 | 36.05421 | 126.80194 | 29124 ft | 450 kts | 199° |
| 2026-04-20 15:41 | 36.02304 | 126.79843 | 29458 ft | 450 kts | 199° |
| 2026-04-20 15:41 | 35.99187 | 126.79496 | 29799 ft | 450 kts | 199° |
| 2026-04-20 15:41 | 35.96071 | 126.79153 | 30169 ft | 449 kts | 198° |
| 2026-04-20 15:42 | 35.92962 | 126.78819 | 30383 ft | 448 kts | 198° |
| 2026-04-20 15:42 | 35.89855 | 126.78504 | 30553 ft | 448 kts | 198° |
| 2026-04-20 15:42 | 35.86742 | 126.78179 | 30811 ft | 449 kts | 198° |
| 2026-04-20 15:42 | 35.83637 | 126.77839 | 31172 ft | 447 kts | 198° |
| 2026-04-20 15:43 | 35.80539 | 126.77496 | 31521 ft | 446 kts | 198° |
| 2026-04-20 15:43 | 35.77457 | 126.77154 | 31861 ft | 445 kts | 199° |
| 2026-04-20 15:43 | 35.74377 | 126.76815 | 32177 ft | 444 kts | 198° |
| 2026-04-20 15:43 | 35.71301 | 126.76483 | 32530 ft | 442 kts | 198° |
| 2026-04-20 15:44 | 35.68248 | 126.76153 | 32884 ft | 439 kts | 199° |
| 2026-04-20 15:44 | 35.65213 | 126.75824 | 33221 ft | 437 kts | 199° |
| 2026-04-20 15:44 | 35.62187 | 126.75497 | 33524 ft | 436 kts | 199° |
| 2026-04-20 15:44 | 35.59168 | 126.75172 | 33812 ft | 435 kts | 199° |
| 2026-04-20 15:45 | 35.56151 | 126.74850 | 34084 ft | 434 kts | 199° |
| 2026-04-20 15:45 | 35.50121 | 126.74198 | 34157 ft | 436 kts | 199° |
| 2026-04-20 15:46 | 35.44070 | 126.73545 | 34154 ft | 436 kts | 198° |
| 2026-04-20 15:46 | 35.38012 | 126.72896 | 34154 ft | 436 kts | 199° |
| 2026-04-20 15:47 | 35.31984 | 126.72220 | 34165 ft | 435 kts | 199° |
| 2026-04-20 15:47 | 35.25919 | 126.71567 | 34154 ft | 439 kts | 198° |
| 2026-04-20 15:48 | 35.19818 | 126.70945 | 34156 ft | 439 kts | 198° |
| 2026-04-20 15:48 | 35.13737 | 126.70314 | 34165 ft | 439 kts | 198° |
| 2026-04-20 15:49 | 35.07667 | 126.69672 | 34172 ft | 440 kts | 198° |
| 2026-04-20 15:49 | 35.01565 | 126.69021 | 34177 ft | 440 kts | 198° |
| 2026-04-20 15:50 | 34.95470 | 126.68375 | 34173 ft | 440 kts | 198° |
| 2026-04-20 15:50 | 34.89365 | 126.67728 | 34176 ft | 440 kts | 198° |
| 2026-04-20 15:51 | 34.83283 | 126.67083 | 34176 ft | 441 kts | 197° |
| 2026-04-20 15:51 | 34.77164 | 126.66438 | 34179 ft | 441 kts | 197° |
| 2026-04-20 15:52 | 34.71044 | 126.65789 | 34182 ft | 442 kts | 197° |
| 2026-04-20 15:52 | 34.64932 | 126.65144 | 34179 ft | 440 kts | 197° |
| 2026-04-20 15:53 | 34.55787 | 126.64280 | 34147 ft | 439 kts | 197° |
| 2026-04-20 15:53 | 34.49693 | 126.63610 | 34149 ft | 440 kts | 197° |
| 2026-04-20 15:54 | 34.43593 | 126.62895 | 34154 ft | 441 kts | 197° |
| 2026-04-20 15:54 | 34.37507 | 126.62245 | 34157 ft | 443 kts | 196° |
| 2026-04-20 15:55 | 34.31359 | 126.61632 | 34161 ft | 443 kts | 196° |
| 2026-04-20 15:55 | 34.25211 | 126.61006 | 34163 ft | 443 kts | 197° |
| 2026-04-20 15:56 | 34.19058 | 126.60356 | 34164 ft | 443 kts | 196° |
| 2026-04-20 15:56 | 34.12913 | 126.59720 | 34166 ft | 444 kts | 196° |
| 2026-04-20 15:57 | 34.06760 | 126.59070 | 34168 ft | 444 kts | 196° |
| 2026-04-20 15:57 | 34.00593 | 126.58429 | 34174 ft | 444 kts | 196° |
| 2026-04-20 15:58 | 33.94435 | 126.57795 | 34178 ft | 444 kts | 195° |
| 2026-04-20 15:58 | 33.88276 | 126.57151 | 34181 ft | 444 kts | 195° |
| 2026-04-20 15:59 | 33.82285 | 126.55934 | 34179 ft | 426 kts | 208° |
| 2026-04-20 15:59 | 33.76745 | 126.53534 | 34174 ft | 423 kts | 210° |
| 2026-04-20 16:00 | 33.71221 | 126.51125 | 34175 ft | 424 kts | 210° |
| 2026-04-20 16:00 | 33.65666 | 126.48716 | 34177 ft | 424 kts | 210° |
| 2026-04-20 16:01 | 33.60146 | 126.46333 | 34180 ft | 425 kts | 210° |
| 2026-04-20 16:01 | 33.54580 | 126.43933 | 34180 ft | 424 kts | 210° |
| 2026-04-20 16:02 | 33.49020 | 126.41534 | 34180 ft | 425 kts | 209° |
| 2026-04-20 16:02 | 33.43453 | 126.39138 | 34182 ft | 425 kts | 209° |
| 2026-04-20 16:03 | 33.37873 | 126.36739 | 34182 ft | 425 kts | 209° |
| 2026-04-20 16:03 | 33.32287 | 126.34336 | 34180 ft | 426 kts | 209° |
| 2026-04-20 16:04 | 33.26751 | 126.31964 | 34181 ft | 426 kts | 209° |
| 2026-04-20 16:04 | 33.21170 | 126.29571 | 34179 ft | 426 kts | 209° |
| 2026-04-20 16:05 | 33.15600 | 126.27179 | 34179 ft | 426 kts | 209° |
| 2026-04-20 16:05 | 33.10008 | 126.24784 | 34179 ft | 426 kts | 208° |
| 2026-04-20 16:06 | 33.04419 | 126.22406 | 34180 ft | 427 kts | 208° |
| 2026-04-20 16:06 | 32.98830 | 126.20038 | 34177 ft | 427 kts | 208° |
| 2026-04-20 16:07 | 32.93229 | 126.17634 | 34179 ft | 427 kts | 208° |
| 2026-04-20 16:07 | 32.87636 | 126.15225 | 34179 ft | 428 kts | 208° |
| 2026-04-20 16:08 | 32.82044 | 126.12822 | 34179 ft | 428 kts | 208° |
| 2026-04-20 16:08 | 32.76431 | 126.10416 | 34180 ft | 428 kts | 207° |
| 2026-04-20 16:09 | 32.70817 | 126.08015 | 34179 ft | 429 kts | 207° |
| 2026-04-20 16:09 | 32.65194 | 126.05631 | 34181 ft | 429 kts | 207° |
| 2026-04-20 16:10 | 32.59599 | 126.03254 | 34182 ft | 429 kts | 207° |
| 2026-04-20 16:10 | 32.53967 | 126.00852 | 34179 ft | 430 kts | 207° |
| 2026-04-20 16:11 | 32.48345 | 125.98462 | 34176 ft | 430 kts | 207° |
| 2026-04-20 16:11 | 32.42699 | 125.96065 | 34178 ft | 431 kts | 207° |
| 2026-04-20 16:12 | 32.37059 | 125.93685 | 34181 ft | 431 kts | 206° |
| 2026-04-20 16:12 | 32.31421 | 125.91295 | 34177 ft | 431 kts | 207° |
| 2026-04-20 16:13 | 32.25769 | 125.88904 | 34174 ft | 431 kts | 206° |
| 2026-04-20 16:13 | 32.20115 | 125.86522 | 34175 ft | 432 kts | 206° |
| 2026-04-20 16:14 | 32.14457 | 125.84145 | 34176 ft | 431 kts | 206° |
| 2026-04-20 16:14 | 32.08802 | 125.81759 | 34175 ft | 431 kts | 206° |
| 2026-04-20 16:15 | 32.03150 | 125.79384 | 34174 ft | 431 kts | 206° |
| 2026-04-20 16:15 | 31.97499 | 125.77021 | 34173 ft | 431 kts | 206° |
| 2026-04-20 16:16 | 31.91845 | 125.74636 | 34170 ft | 431 kts | 206° |
| 2026-04-20 16:16 | 31.86189 | 125.72253 | 34172 ft | 432 kts | 206° |
| 2026-04-20 16:17 | 31.80568 | 125.69888 | 34172 ft | 432 kts | 206° |
| 2026-04-20 16:17 | 31.74902 | 125.67519 | 34171 ft | 432 kts | 206° |
| 2026-04-20 16:18 | 31.69231 | 125.65154 | 34167 ft | 432 kts | 206° |
| 2026-04-20 16:18 | 31.63560 | 125.62781 | 34166 ft | 432 kts | 206° |
| 2026-04-20 16:19 | 31.57889 | 125.60409 | 34167 ft | 433 kts | 206° |
| 2026-04-20 16:19 | 31.52215 | 125.58040 | 34172 ft | 433 kts | 207° |
| 2026-04-20 16:20 | 31.46530 | 125.55665 | 34174 ft | 434 kts | 207° |
| 2026-04-20 16:20 | 31.40885 | 125.53293 | 34177 ft | 434 kts | 207° |
| 2026-04-20 16:21 | 31.35194 | 125.50910 | 34174 ft | 434 kts | 207° |
| 2026-04-20 16:21 | 31.29494 | 125.48539 | 34171 ft | 435 kts | 207° |
| 2026-04-20 16:22 | 31.23795 | 125.46162 | 34170 ft | 435 kts | 207° |
| 2026-04-20 16:22 | 31.18084 | 125.43780 | 34172 ft | 436 kts | 207° |
| 2026-04-20 16:23 | 31.12369 | 125.41399 | 34172 ft | 436 kts | 207° |
| 2026-04-20 16:23 | 31.06650 | 125.39025 | 34171 ft | 437 kts | 207° |
| 2026-04-20 16:24 | 31.01887 | 125.37045 | 34171 ft | 437 kts | 207° |
| 2026-04-20 16:24 | 30.96152 | 125.34664 | 34169 ft | 437 kts | 207° |
| 2026-04-20 16:25 | 30.90411 | 125.32289 | 34169 ft | 438 kts | 207° |
| 2026-04-20 16:25 | 30.84659 | 125.29917 | 34168 ft | 438 kts | 207° |
| 2026-04-20 16:26 | 30.78915 | 125.27549 | 34167 ft | 438 kts | 207° |
| 2026-04-20 16:26 | 30.73160 | 125.25169 | 34171 ft | 439 kts | 207° |
| 2026-04-20 16:27 | 30.67396 | 125.22796 | 34172 ft | 440 kts | 207° |
| 2026-04-20 16:27 | 30.61619 | 125.20424 | 34176 ft | 440 kts | 207° |
| 2026-04-20 16:28 | 30.55841 | 125.18049 | 34178 ft | 440 kts | 207° |
| 2026-04-20 16:28 | 30.50064 | 125.15681 | 34180 ft | 440 kts | 207° |
| 2026-04-20 16:29 | 30.44321 | 125.13345 | 34181 ft | 441 kts | 207° |
| 2026-04-20 16:29 | 30.38536 | 125.10973 | 34180 ft | 440 kts | 207° |
| 2026-04-20 16:30 | 30.32754 | 125.08598 | 34180 ft | 441 kts | 207° |
| 2026-04-20 16:30 | 30.26960 | 125.06227 | 34178 ft | 441 kts | 207° |
| 2026-04-20 16:31 | 30.21168 | 125.03866 | 34179 ft | 442 kts | 207° |
| 2026-04-20 16:31 | 30.15357 | 125.01507 | 34181 ft | 442 kts | 207° |
| 2026-04-20 16:32 | 30.09594 | 124.99166 | 34183 ft | 442 kts | 207° |
| 2026-04-20 16:32 | 30.03795 | 124.96802 | 34183 ft | 442 kts | 207° |
| 2026-04-20 16:33 | 29.98001 | 124.94438 | 34184 ft | 441 kts | 208° |
| 2026-04-20 16:33 | 29.92238 | 124.91982 | 34171 ft | 441 kts | 208° |
| 2026-04-20 16:34 | 29.86476 | 124.89491 | 34170 ft | 442 kts | 208° |
| 2026-04-20 16:34 | 29.80696 | 124.87010 | 34166 ft | 443 kts | 208° |
| 2026-04-20 16:35 | 29.74919 | 124.84561 | 34167 ft | 443 kts | 208° |
| 2026-04-20 16:35 | 29.69123 | 124.82098 | 34164 ft | 443 kts | 208° |
| 2026-04-20 16:36 | 29.63371 | 124.79660 | 34161 ft | 444 kts | 207° |
| 2026-04-20 16:36 | 29.57580 | 124.77205 | 34158 ft | 443 kts | 208° |
| 2026-04-20 16:37 | 29.51792 | 124.74743 | 34156 ft | 444 kts | 207° |
| 2026-04-20 16:37 | 29.45992 | 124.72287 | 34154 ft | 444 kts | 207° |
| 2026-04-20 16:38 | 29.40196 | 124.69846 | 34153 ft | 444 kts | 207° |
| 2026-04-20 16:38 | 29.34391 | 124.67395 | 34153 ft | 444 kts | 207° |
| 2026-04-20 16:39 | 29.28591 | 124.64950 | 34155 ft | 444 kts | 207° |
| 2026-04-20 16:39 | 29.22788 | 124.62502 | 34155 ft | 444 kts | 207° |
| 2026-04-20 16:40 | 29.16994 | 124.60063 | 34154 ft | 444 kts | 207° |
| 2026-04-20 16:40 | 29.11183 | 124.57624 | 34154 ft | 445 kts | 207° |
| 2026-04-20 16:41 | 29.05366 | 124.55184 | 34153 ft | 445 kts | 207° |
| 2026-04-20 16:41 | 28.99558 | 124.52751 | 34147 ft | 445 kts | 207° |
| 2026-04-20 16:42 | 28.93968 | 124.49885 | 34141 ft | 435 kts | 219° |
| 2026-04-20 16:42 | 28.89046 | 124.45933 | 34142 ft | 433 kts | 221° |
| 2026-04-20 16:43 | 28.84113 | 124.41979 | 34142 ft | 433 kts | 220° |
| 2026-04-20 16:43 | 28.79183 | 124.38028 | 34139 ft | 434 kts | 220° |
| 2026-04-20 16:44 | 28.74228 | 124.34064 | 34139 ft | 434 kts | 220° |
| 2026-04-20 16:44 | 28.69308 | 124.30127 | 34139 ft | 435 kts | 220° |
| 2026-04-20 16:45 | 28.64366 | 124.26168 | 34133 ft | 435 kts | 220° |
| 2026-04-20 16:45 | 28.59407 | 124.22199 | 34132 ft | 436 kts | 220° |
| 2026-04-20 16:46 | 28.54437 | 124.18234 | 34130 ft | 437 kts | 220° |
| 2026-04-20 16:46 | 28.49462 | 124.14271 | 34131 ft | 437 kts | 220° |
| 2026-04-20 16:47 | 28.44473 | 124.10306 | 34130 ft | 437 kts | 219° |
| 2026-04-20 16:47 | 28.39486 | 124.06338 | 34128 ft | 438 kts | 219° |
| 2026-04-20 16:48 | 28.34524 | 124.02402 | 34123 ft | 438 kts | 219° |
| 2026-04-20 16:48 | 28.29253 | 123.98904 | 34118 ft | 446 kts | 207° |
| 2026-04-20 16:49 | 28.23520 | 123.96168 | 34118 ft | 446 kts | 208° |
| 2026-04-20 16:49 | 28.17806 | 123.93439 | 34113 ft | 446 kts | 207° |
| 2026-04-20 16:50 | 28.12084 | 123.90703 | 34114 ft | 446 kts | 207° |
| 2026-04-20 16:50 | 28.06356 | 123.87966 | 34115 ft | 446 kts | 208° |
| 2026-04-20 16:51 | 28.00636 | 123.85222 | 34113 ft | 446 kts | 208° |
| 2026-04-20 16:51 | 27.94922 | 123.82491 | 34112 ft | 446 kts | 207° |
| 2026-04-20 16:52 | 27.89187 | 123.79772 | 34113 ft | 447 kts | 207° |
| 2026-04-20 16:52 | 27.83488 | 123.77067 | 34114 ft | 447 kts | 207° |
| 2026-04-20 16:53 | 27.77747 | 123.74335 | 34115 ft | 447 kts | 207° |
| 2026-04-20 16:53 | 27.72016 | 123.71615 | 34115 ft | 447 kts | 207° |
| 2026-04-20 16:54 | 27.66291 | 123.68899 | 34117 ft | 447 kts | 207° |
| 2026-04-20 16:54 | 27.60714 | 123.65891 | 34112 ft | 440 kts | 218° |
| 2026-04-20 16:55 | 27.55755 | 123.61897 | 34112 ft | 438 kts | 220° |
| 2026-04-20 16:55 | 27.50812 | 123.57882 | 34113 ft | 437 kts | 220° |
| 2026-04-20 16:56 | 27.45870 | 123.53884 | 34113 ft | 437 kts | 219° |
| 2026-04-20 16:56 | 27.40931 | 123.49887 | 34112 ft | 437 kts | 219° |
| 2026-04-20 16:57 | 27.35987 | 123.45891 | 34113 ft | 437 kts | 219° |
| 2026-04-20 16:57 | 27.31052 | 123.41909 | 34111 ft | 437 kts | 219° |
| 2026-04-20 16:58 | 27.26107 | 123.37926 | 34112 ft | 437 kts | 219° |
| 2026-04-20 16:58 | 27.21173 | 123.33945 | 34107 ft | 436 kts | 219° |
| 2026-04-20 16:59 | 27.16280 | 123.30005 | 34106 ft | 436 kts | 219° |
| 2026-04-20 16:59 | 27.11339 | 123.26037 | 34105 ft | 436 kts | 219° |
| 2026-04-20 17:00 | 27.03945 | 123.20089 | 34104 ft | 436 kts | 219° |
| 2026-04-20 17:01 | 26.99010 | 123.16141 | 34091 ft | 436 kts | 219° |
| 2026-04-20 17:01 | 26.94084 | 123.12201 | 34081 ft | 435 kts | 219° |
| 2026-04-20 17:02 | 26.89156 | 123.08251 | 34077 ft | 435 kts | 219° |
| 2026-04-20 17:02 | 26.84222 | 123.04314 | 34079 ft | 436 kts | 219° |
| 2026-04-20 17:03 | 26.79276 | 123.00382 | 34076 ft | 435 kts | 219° |
| 2026-04-20 17:03 | 26.74347 | 122.96456 | 34077 ft | 435 kts | 219° |
| 2026-04-20 17:04 | 26.69410 | 122.92536 | 34077 ft | 435 kts | 219° |
| 2026-04-20 17:04 | 26.64481 | 122.88626 | 34076 ft | 434 kts | 219° |
| 2026-04-20 17:05 | 26.59558 | 122.84729 | 34073 ft | 434 kts | 219° |
| 2026-04-20 17:05 | 26.54658 | 122.80861 | 34078 ft | 434 kts | 219° |
| 2026-04-20 17:06 | 26.49732 | 122.76967 | 34074 ft | 433 kts | 219° |
| 2026-04-20 17:06 | 26.44819 | 122.73076 | 34070 ft | 433 kts | 219° |
| 2026-04-20 17:07 | 26.39912 | 122.69173 | 34070 ft | 432 kts | 219° |
| 2026-04-20 17:07 | 26.35005 | 122.65279 | 34069 ft | 433 kts | 219° |
| 2026-04-20 17:08 | 26.30089 | 122.61404 | 34068 ft | 432 kts | 219° |
| 2026-04-20 17:08 | 26.25170 | 122.57542 | 34064 ft | 432 kts | 219° |
| 2026-04-20 17:09 | 26.20265 | 122.53675 | 34056 ft | 432 kts | 219° |
| 2026-04-20 17:09 | 26.15384 | 122.49827 | 34053 ft | 432 kts | 219° |
| 2026-04-20 17:10 | 26.10468 | 122.45968 | 34048 ft | 432 kts | 218° |
| 2026-04-20 17:10 | 26.05558 | 122.42133 | 34049 ft | 431 kts | 218° |
| 2026-04-20 17:11 | 26.00653 | 122.38293 | 34049 ft | 431 kts | 218° |
| 2026-04-20 17:11 | 25.96575 | 122.35098 | 34049 ft | 431 kts | 218° |
| 2026-04-20 17:12 | 25.91658 | 122.31261 | 34045 ft | 431 kts | 218° |
| 2026-04-20 17:12 | 25.86754 | 122.27430 | 34043 ft | 431 kts | 218° |
| 2026-04-20 17:13 | 25.81856 | 122.23608 | 34035 ft | 431 kts | 218° |
| 2026-04-20 17:13 | 25.76944 | 122.19785 | 34032 ft | 430 kts | 218° |
| 2026-04-20 17:14 | 25.72048 | 122.15970 | 34035 ft | 430 kts | 219° |
| 2026-04-20 17:14 | 25.67151 | 122.12160 | 34030 ft | 430 kts | 218° |
| 2026-04-20 17:15 | 25.62284 | 122.08308 | 34029 ft | 428 kts | 223° |
| 2026-04-20 17:15 | 25.58226 | 122.03543 | 34027 ft | 425 kts | 231° |
| 2026-04-20 17:16 | 25.54356 | 121.98587 | 34021 ft | 426 kts | 231° |
| 2026-04-20 17:16 | 25.50488 | 121.93687 | 34028 ft | 426 kts | 231° |
| 2026-04-20 17:17 | 25.46578 | 121.88741 | 34020 ft | 426 kts | 231° |
| 2026-04-20 17:17 | 25.42677 | 121.83796 | 34021 ft | 427 kts | 231° |
| 2026-04-20 17:18 | 25.38770 | 121.78847 | 34021 ft | 427 kts | 231° |
| 2026-04-20 17:18 | 25.34853 | 121.73896 | 34021 ft | 428 kts | 231° |
| 2026-04-20 17:19 | 25.30936 | 121.68943 | 34025 ft | 428 kts | 231° |
| 2026-04-20 17:19 | 25.27022 | 121.63999 | 34020 ft | 428 kts | 231° |
| 2026-04-20 17:20 | 25.23090 | 121.59041 | 34019 ft | 429 kts | 231° |
| 2026-04-20 17:20 | 25.19181 | 121.54117 | 34013 ft | 429 kts | 230° |
| 2026-04-20 17:21 | 25.15226 | 121.49102 | 34012 ft | 430 kts | 231° |
| 2026-04-20 17:21 | 25.11346 | 121.44059 | 34019 ft | 430 kts | 231° |
| 2026-04-20 17:22 | 25.07511 | 121.39045 | 34018 ft | 431 kts | 231° |
| 2026-04-20 17:22 | 25.03639 | 121.34006 | 34017 ft | 431 kts | 231° |
| 2026-04-20 17:23 | 24.99740 | 121.28971 | 34011 ft | 431 kts | 231° |
| 2026-04-20 17:23 | 24.95850 | 121.23957 | 34004 ft | 431 kts | 231° |
| 2026-04-20 17:24 | 24.91945 | 121.18923 | 33998 ft | 431 kts | 231° |
| 2026-04-20 17:24 | 24.88043 | 121.13893 | 33995 ft | 432 kts | 231° |
| 2026-04-20 17:25 | 24.84143 | 121.08870 | 33997 ft | 432 kts | 231° |
| 2026-04-20 17:25 | 24.80231 | 121.03836 | 34002 ft | 432 kts | 231° |
| 2026-04-20 17:26 | 24.76328 | 120.98813 | 34006 ft | 432 kts | 231° |
| 2026-04-20 17:26 | 24.72413 | 120.93786 | 34012 ft | 432 kts | 231° |
| 2026-04-20 17:27 | 24.68501 | 120.88763 | 34017 ft | 432 kts | 231° |
| 2026-04-20 17:27 | 24.64589 | 120.83741 | 34013 ft | 433 kts | 231° |
| 2026-04-20 17:28 | 24.60662 | 120.78722 | 34023 ft | 433 kts | 231° |
| 2026-04-20 17:28 | 24.56738 | 120.73703 | 34028 ft | 433 kts | 231° |
| 2026-04-20 17:29 | 24.52732 | 120.68818 | 34042 ft | 433 kts | 228° |
| 2026-04-20 17:29 | 24.48515 | 120.64077 | 34047 ft | 434 kts | 227° |
| 2026-04-20 17:30 | 24.44279 | 120.59367 | 34049 ft | 434 kts | 227° |
| 2026-04-20 17:30 | 24.40082 | 120.54613 | 34046 ft | 434 kts | 227° |
| 2026-04-20 17:31 | 24.35901 | 120.49839 | 34046 ft | 434 kts | 227° |
| 2026-04-20 17:31 | 24.31716 | 120.45067 | 34047 ft | 433 kts | 227° |
| 2026-04-20 17:32 | 24.27531 | 120.40315 | 34047 ft | 433 kts | 227° |
| 2026-04-20 17:32 | 24.23341 | 120.35564 | 34047 ft | 433 kts | 227° |
| 2026-04-20 17:33 | 24.19156 | 120.30812 | 34048 ft | 433 kts | 227° |
| 2026-04-20 17:33 | 24.15001 | 120.26091 | 34047 ft | 433 kts | 227° |
| 2026-04-20 17:34 | 24.10801 | 120.21341 | 34047 ft | 433 kts | 227° |
| 2026-04-20 17:34 | 24.06600 | 120.16596 | 34047 ft | 433 kts | 227° |
| 2026-04-20 17:35 | 24.02412 | 120.11862 | 34049 ft | 433 kts | 227° |
| 2026-04-20 17:35 | 23.98218 | 120.07131 | 34039 ft | 433 kts | 227° |
| 2026-04-20 17:36 | 23.94019 | 120.02404 | 34042 ft | 433 kts | 227° |
| 2026-04-20 17:36 | 23.89818 | 119.97674 | 34041 ft | 433 kts | 227° |
| 2026-04-20 17:37 | 23.85643 | 119.92976 | 34041 ft | 433 kts | 227° |
| 2026-04-20 17:37 | 23.81435 | 119.88257 | 34029 ft | 433 kts | 227° |
| 2026-04-20 17:38 | 23.77231 | 119.83541 | 34033 ft | 433 kts | 227° |
| 2026-04-20 17:38 | 23.73029 | 119.78823 | 34034 ft | 433 kts | 227° |
| 2026-04-20 17:39 | 23.68820 | 119.74105 | 34030 ft | 434 kts | 227° |
| 2026-04-20 17:39 | 23.64633 | 119.69417 | 34021 ft | 434 kts | 227° |
| 2026-04-20 17:40 | 23.60427 | 119.64693 | 34022 ft | 434 kts | 229° |
| 2026-04-20 17:40 | 23.56986 | 119.59315 | 34017 ft | 433 kts | 238° |
| 2026-04-20 17:41 | 23.53775 | 119.53757 | 34018 ft | 433 kts | 238° |
| 2026-04-20 17:41 | 23.50555 | 119.48212 | 34014 ft | 433 kts | 238° |
| 2026-04-20 17:42 | 23.47332 | 119.42661 | 34014 ft | 433 kts | 238° |
| 2026-04-20 17:42 | 23.44131 | 119.37148 | 34025 ft | 434 kts | 238° |
| 2026-04-20 17:43 | 23.40909 | 119.31598 | 34019 ft | 434 kts | 238° |
| 2026-04-20 17:43 | 23.37669 | 119.26043 | 34031 ft | 434 kts | 238° |
| 2026-04-20 17:44 | 23.34429 | 119.20490 | 34035 ft | 435 kts | 238° |
| 2026-04-20 17:44 | 23.31186 | 119.14934 | 34026 ft | 435 kts | 238° |
| 2026-04-20 17:45 | 23.27936 | 119.09381 | 34029 ft | 436 kts | 238° |
| 2026-04-20 17:45 | 23.24683 | 119.03817 | 34037 ft | 436 kts | 238° |
| 2026-04-20 17:46 | 23.21437 | 118.98261 | 34028 ft | 434 kts | 238° |
| 2026-04-20 17:46 | 23.18186 | 118.92717 | 34026 ft | 435 kts | 238° |
| 2026-04-20 17:47 | 23.14937 | 118.87176 | 34032 ft | 435 kts | 238° |
| 2026-04-20 17:47 | 23.11678 | 118.81626 | 34027 ft | 435 kts | 238° |
| 2026-04-20 17:48 | 23.08422 | 118.76090 | 34029 ft | 435 kts | 238° |
| 2026-04-20 17:48 | 23.05152 | 118.70539 | 34029 ft | 435 kts | 238° |
| 2026-04-20 17:49 | 23.01888 | 118.64994 | 34025 ft | 435 kts | 238° |
| 2026-04-20 17:49 | 22.98629 | 118.59462 | 34034 ft | 435 kts | 237° |
| 2026-04-20 17:50 | 22.95359 | 118.53936 | 34031 ft | 435 kts | 237° |
| 2026-04-20 17:50 | 22.92104 | 118.48462 | 34033 ft | 435 kts | 237° |
| 2026-04-20 17:51 | 22.88825 | 118.42950 | 34025 ft | 434 kts | 237° |
| 2026-04-20 17:51 | 22.85548 | 118.37437 | 34013 ft | 434 kts | 237° |
| 2026-04-20 17:52 | 22.82261 | 118.31935 | 34009 ft | 435 kts | 237° |
| 2026-04-20 17:52 | 22.78974 | 118.26452 | 34016 ft | 434 kts | 237° |
| 2026-04-20 17:53 | 22.75691 | 118.20951 | 34017 ft | 434 kts | 237° |
| 2026-04-20 17:53 | 22.72409 | 118.15448 | 34012 ft | 434 kts | 237° |
| 2026-04-20 17:54 | 22.69148 | 118.10000 | 34010 ft | 434 kts | 237° |
| 2026-04-20 17:54 | 22.65836 | 118.04480 | 34010 ft | 434 kts | 237° |
| 2026-04-20 17:55 | 22.62561 | 117.99038 | 34013 ft | 434 kts | 237° |
| 2026-04-20 17:55 | 22.59282 | 117.93563 | 34012 ft | 434 kts | 237° |
| 2026-04-20 17:56 | 22.56020 | 117.88081 | 34013 ft | 433 kts | 238° |
| 2026-04-20 17:56 | 22.52765 | 117.82605 | 34023 ft | 432 kts | 238° |
| 2026-04-20 17:57 | 22.49516 | 117.77133 | 34023 ft | 432 kts | 238° |
| 2026-04-20 17:57 | 22.46260 | 117.71659 | 34021 ft | 432 kts | 238° |
| 2026-04-20 17:58 | 22.43003 | 117.66199 | 34017 ft | 432 kts | 238° |
| 2026-04-20 17:58 | 22.40299 | 117.61667 | 34015 ft | 432 kts | 238° |
| 2026-04-20 17:59 | 22.37042 | 117.56209 | 34022 ft | 432 kts | 238° |
| 2026-04-20 17:59 | 22.34728 | 117.50271 | 34015 ft | 432 kts | 258° |
| 2026-04-20 18:00 | 22.34665 | 117.43784 | 34015 ft | 437 kts | 278° |
| 2026-04-20 18:00 | 22.36036 | 117.37368 | 34012 ft | 439 kts | 280° |
| 2026-04-20 18:01 | 22.37400 | 117.30938 | 34014 ft | 440 kts | 279° |
| 2026-04-20 18:01 | 22.38752 | 117.24492 | 34018 ft | 440 kts | 279° |
| 2026-04-20 18:02 | 22.40109 | 117.18043 | 34021 ft | 440 kts | 279° |
| 2026-04-20 18:02 | 22.41464 | 117.11635 | 34018 ft | 440 kts | 279° |
| 2026-04-20 18:03 | 22.42822 | 117.05185 | 34014 ft | 440 kts | 279° |
| 2026-04-20 18:03 | 22.44174 | 116.98728 | 34016 ft | 440 kts | 279° |
| 2026-04-20 18:04 | 22.45517 | 116.92271 | 34024 ft | 440 kts | 279° |
| 2026-04-20 18:04 | 22.46862 | 116.85824 | 34018 ft | 440 kts | 279° |
| 2026-04-20 18:05 | 22.48881 | 116.76162 | 33996 ft | 438 kts | 279° |
| 2026-04-20 18:05 | 22.49549 | 116.72972 | 33662 ft | 431 kts | 279° |
| 2026-04-20 18:05 | 22.50201 | 116.69842 | 33457 ft | 421 kts | 279° |
| 2026-04-20 18:06 | 22.50646 | 116.66774 | 33300 ft | 405 kts | 266° |
| 2026-04-20 18:06 | 22.50492 | 116.63777 | 33166 ft | 394 kts | 264° |
| 2026-04-20 18:06 | 22.50315 | 116.60831 | 33000 ft | 391 kts | 264° |
| 2026-04-20 18:06 | 22.50154 | 116.57900 | 32850 ft | 390 kts | 264° |
| 2026-04-20 18:07 | 22.50001 | 116.54970 | 32695 ft | 391 kts | 264° |
| 2026-04-20 18:07 | 22.49848 | 116.51984 | 32557 ft | 403 kts | 264° |
| 2026-04-20 18:07 | 22.49687 | 116.48960 | 32178 ft | 414 kts | 264° |
| 2026-04-20 18:07 | 22.49511 | 116.45762 | 31207 ft | 423 kts | 264° |
| 2026-04-20 18:08 | 22.49332 | 116.42615 | 30961 ft | 429 kts | 265° |
| 2026-04-20 18:08 | 22.49149 | 116.39374 | 30989 ft | 436 kts | 265° |
| 2026-04-20 18:08 | 22.48776 | 116.32744 | 30989 ft | 444 kts | 265° |
| 2026-04-20 18:09 | 22.48397 | 116.26077 | 30828 ft | 445 kts | 264° |
| 2026-04-20 18:09 | 22.48206 | 116.22736 | 30575 ft | 444 kts | 264° |
| 2026-04-20 18:09 | 22.48015 | 116.19397 | 30327 ft | 445 kts | 264° |
| 2026-04-20 18:10 | 22.47821 | 116.16058 | 30078 ft | 446 kts | 264° |
| 2026-04-20 18:10 | 22.47625 | 116.12714 | 29822 ft | 446 kts | 264° |
| 2026-04-20 18:10 | 22.47430 | 116.09369 | 29567 ft | 447 kts | 265° |
| 2026-04-20 18:10 | 22.47235 | 116.06002 | 29330 ft | 448 kts | 265° |
| 2026-04-20 18:11 | 22.47042 | 116.02635 | 29078 ft | 449 kts | 265° |
| 2026-04-20 18:11 | 22.46849 | 115.99261 | 28820 ft | 449 kts | 265° |
| 2026-04-20 18:11 | 22.46653 | 115.95884 | 28573 ft | 450 kts | 265° |
| 2026-04-20 18:11 | 22.46452 | 115.92504 | 28323 ft | 451 kts | 265° |
| 2026-04-20 18:12 | 22.46245 | 115.89123 | 28073 ft | 451 kts | 265° |
| 2026-04-20 18:12 | 22.46036 | 115.85734 | 27821 ft | 452 kts | 265° |
| 2026-04-20 18:12 | 22.45830 | 115.82383 | 27574 ft | 453 kts | 265° |
| 2026-04-20 18:12 | 22.45623 | 115.78941 | 27323 ft | 454 kts | 265° |
| 2026-04-20 18:13 | 22.45424 | 115.75577 | 27072 ft | 455 kts | 265° |
| 2026-04-20 18:13 | 22.45223 | 115.72163 | 26823 ft | 455 kts | 265° |
| 2026-04-20 18:13 | 22.45024 | 115.68749 | 26573 ft | 456 kts | 265° |
| 2026-04-20 18:13 | 22.44817 | 115.65320 | 26319 ft | 456 kts | 265° |
| 2026-04-20 18:14 | 22.44607 | 115.61897 | 26069 ft | 457 kts | 265° |
| 2026-04-20 18:14 | 22.44394 | 115.58460 | 25829 ft | 458 kts | 265° |
| 2026-04-20 18:14 | 22.44182 | 115.55022 | 25571 ft | 459 kts | 265° |
| 2026-04-20 18:14 | 22.43969 | 115.51573 | 25316 ft | 459 kts | 265° |
| 2026-04-20 18:15 | 22.43755 | 115.48125 | 25067 ft | 460 kts | 265° |
| 2026-04-20 18:15 | 22.43541 | 115.44680 | 24817 ft | 460 kts | 266° |
| 2026-04-20 18:15 | 22.43329 | 115.41224 | 24564 ft | 461 kts | 266° |
| 2026-04-20 18:15 | 22.43115 | 115.37762 | 24318 ft | 462 kts | 266° |
| 2026-04-20 18:16 | 22.42896 | 115.34293 | 24067 ft | 463 kts | 266° |
| 2026-04-20 18:16 | 22.42677 | 115.30830 | 23819 ft | 463 kts | 266° |
| 2026-04-20 18:16 | 22.42456 | 115.27353 | 23566 ft | 463 kts | 266° |
| 2026-04-20 18:16 | 22.42234 | 115.23880 | 23317 ft | 462 kts | 266° |
| 2026-04-20 18:17 | 22.42015 | 115.20429 | 23068 ft | 460 kts | 266° |
| 2026-04-20 18:17 | 22.41796 | 115.16989 | 22817 ft | 458 kts | 265° |
| 2026-04-20 18:17 | 22.41575 | 115.13561 | 22564 ft | 456 kts | 265° |
| 2026-04-20 18:17 | 22.41355 | 115.10149 | 22314 ft | 455 kts | 265° |
| 2026-04-20 18:18 | 22.41136 | 115.06735 | 22064 ft | 453 kts | 265° |
| 2026-04-20 18:18 | 22.40920 | 115.03345 | 21813 ft | 452 kts | 265° |
| 2026-04-20 18:18 | 22.40702 | 114.99963 | 21564 ft | 450 kts | 265° |
| 2026-04-20 18:18 | 22.40484 | 114.96596 | 21314 ft | 449 kts | 265° |
| 2026-04-20 18:19 | 22.40265 | 114.93280 | 21064 ft | 447 kts | 265° |
| 2026-04-20 18:19 | 22.40045 | 114.89940 | 20815 ft | 445 kts | 265° |
| 2026-04-20 18:19 | 22.39824 | 114.86603 | 20567 ft | 443 kts | 265° |
| 2026-04-20 18:19 | 22.39603 | 114.83285 | 20312 ft | 442 kts | 265° |
| 2026-04-20 18:20 | 22.39381 | 114.79976 | 20061 ft | 441 kts | 265° |
| 2026-04-20 18:20 | 22.39162 | 114.76680 | 19808 ft | 439 kts | 265° |
| 2026-04-20 18:20 | 22.38944 | 114.73398 | 19559 ft | 437 kts | 266° |
| 2026-04-20 18:20 | 22.38730 | 114.70166 | 19300 ft | 423 kts | 265° |
| 2026-04-20 18:21 | 22.38523 | 114.67044 | 19046 ft | 408 kts | 265° |
| 2026-04-20 18:21 | 22.38322 | 114.64033 | 18795 ft | 395 kts | 265° |
| 2026-04-20 18:21 | 22.38127 | 114.61121 | 18546 ft | 384 kts | 265° |
| 2026-04-20 18:21 | 22.37935 | 114.58280 | 18297 ft | 373 kts | 266° |
| 2026-04-20 18:22 | 22.37754 | 114.55560 | 18049 ft | 363 kts | 266° |
| 2026-04-20 18:22 | 22.37574 | 114.52880 | 17796 ft | 353 kts | 265° |
| 2026-04-20 18:22 | 22.37397 | 114.50273 | 17546 ft | 343 kts | 266° |
| 2026-04-20 18:22 | 22.37225 | 114.47738 | 17289 ft | 334 kts | 265° |
| 2026-04-20 18:23 | 22.37057 | 114.45269 | 17046 ft | 325 kts | 265° |
| 2026-04-20 18:23 | 22.36893 | 114.42868 | 16794 ft | 317 kts | 265° |
| 2026-04-20 18:23 | 22.36732 | 114.40513 | 16542 ft | 309 kts | 265° |
| 2026-04-20 18:23 | 22.36572 | 114.38214 | 16293 ft | 306 kts | 265° |
| 2026-04-20 18:24 | 22.36413 | 114.35935 | 16044 ft | 304 kts | 266° |
| 2026-04-20 18:24 | 22.36257 | 114.33663 | 15791 ft | 302 kts | 265° |
| 2026-04-20 18:24 | 22.36101 | 114.31398 | 15540 ft | 302 kts | 265° |
| 2026-04-20 18:24 | 22.35988 | 114.29114 | 15294 ft | 316 kts | 273° |
| 2026-04-20 18:25 | 22.36452 | 114.26685 | 15059 ft | 346 kts | 285° |
| 2026-04-20 18:25 | 22.37186 | 114.24115 | 14805 ft | 374 kts | 285° |
| 2026-04-20 18:25 | 22.38003 | 114.21324 | 14544 ft | 399 kts | 286° |
| 2026-04-20 18:25 | 22.38845 | 114.18437 | 14292 ft | 406 kts | 286° |
| 2026-04-20 18:26 | 22.39688 | 114.15554 | 14026 ft | 396 kts | 286° |
| 2026-04-20 18:26 | 22.40498 | 114.12791 | 13754 ft | 374 kts | 286° |
| 2026-04-20 18:26 | 22.41266 | 114.10181 | 13381 ft | 354 kts | 286° |
| 2026-04-20 18:26 | 22.41998 | 114.07716 | 13028 ft | 336 kts | 286° |
| 2026-04-20 18:27 | 22.42697 | 114.05365 | 12687 ft | 320 kts | 286° |
| 2026-04-20 18:27 | 22.43367 | 114.03127 | 12337 ft | 307 kts | 286° |
| 2026-04-20 18:27 | 22.44014 | 114.00973 | 11977 ft | 295 kts | 286° |
| 2026-04-20 18:27 | 22.44642 | 113.98888 | 11636 ft | 290 kts | 286° |
| 2026-04-20 18:28 | 22.45269 | 113.96813 | 11289 ft | 291 kts | 286° |
| 2026-04-20 18:28 | 22.45898 | 113.94742 | 10936 ft | 289 kts | 286° |
| 2026-04-20 18:28 | 22.46522 | 113.92704 | 10683 ft | 290 kts | 286° |
| 2026-04-20 18:28 | 22.47166 | 113.90612 | 10431 ft | 290 kts | 286° |
| 2026-04-20 18:29 | 22.47799 | 113.88565 | 10183 ft | 290 kts | 286° |
| 2026-04-20 18:29 | 22.48594 | 113.86557 | 9929 ft | 293 kts | 301° |
| 2026-04-20 18:29 | 22.49701 | 113.84712 | 9682 ft | 292 kts | 292° |
| 2026-04-20 18:29 | 22.50146 | 113.82612 | 9393 ft | 286 kts | 266° |
| 2026-04-20 18:30 | 22.49892 | 113.80488 | 8969 ft | 285 kts | 257° |
| 2026-04-20 18:30 | 22.49504 | 113.78388 | 8542 ft | 285 kts | 256° |
| 2026-04-20 18:30 | 22.49105 | 113.76284 | 8115 ft | 286 kts | 256° |
| 2026-04-20 18:30 | 22.48707 | 113.74174 | 7685 ft | 287 kts | 256° |
| 2026-04-20 18:31 | 22.48299 | 113.72064 | 7259 ft | 287 kts | 253° |
| 2026-04-20 18:31 | 22.47431 | 113.70165 | 6833 ft | 282 kts | 227° |
| 2026-04-20 18:31 | 22.45907 | 113.68881 | 6461 ft | 277 kts | 208° |
| 2026-04-20 18:31 | 22.44223 | 113.67903 | 6166 ft | 272 kts | 206° |
| 2026-04-20 18:32 | 22.42546 | 113.66963 | 5823 ft | 270 kts | 206° |
| 2026-04-20 18:32 | 22.40905 | 113.65985 | 5461 ft | 269 kts | 215° |
| 2026-04-20 18:32 | 22.39573 | 113.64571 | 5090 ft | 269 kts | 227° |
| 2026-04-20 18:32 | 22.38374 | 113.63050 | 4657 ft | 265 kts | 228° |
| 2026-04-20 18:33 | 22.37189 | 113.61518 | 4231 ft | 266 kts | 229° |
| 2026-04-20 18:33 | 22.36010 | 113.59989 | 3806 ft | 264 kts | 228° |
| 2026-04-20 18:33 | 22.34832 | 113.58461 | 3372 ft | 263 kts | 229° |
| 2026-04-20 18:33 | 22.33659 | 113.56937 | 3023 ft | 261 kts | 228° |
| 2026-04-20 18:34 | 22.32403 | 113.55524 | 3022 ft | 262 kts | 216° |
| 2026-04-20 18:34 | 22.30831 | 113.54588 | 2891 ft | 248 kts | 197° |
| 2026-04-20 18:34 | 22.29256 | 113.54264 | 2684 ft | 220 kts | 180° |
| 2026-04-20 18:34 | 22.27834 | 113.54418 | 2458 ft | 194 kts | 166° |
| 2026-04-20 18:35 | 22.26645 | 113.54836 | 2235 ft | 167 kts | 161° |
| 2026-04-20 18:35 | 22.25615 | 113.55214 | 1996 ft | 148 kts | 160° |
| 2026-04-20 18:35 | 22.24662 | 113.55563 | 1805 ft | 141 kts | 161° |
| 2026-04-20 18:35 | 22.23748 | 113.55898 | 1622 ft | 140 kts | 161° |
| 2026-04-20 18:36 | 22.22837 | 113.56235 | 1440 ft | 138 kts | 161° |
| 2026-04-20 18:36 | 22.21936 | 113.56571 | 1262 ft | 137 kts | 161° |
| 2026-04-20 18:36 | 22.21034 | 113.56901 | 1081 ft | 136 kts | 161° |
| 2026-04-20 18:36 | 22.20139 | 113.57230 | 901 ft | 136 kts | 161° |
| 2026-04-20 18:37 | 22.19243 | 113.57558 | 724 ft | 136 kts | 162° |
| 2026-04-20 18:37 | 22.18348 | 113.57887 | 539 ft | 136 kts | 161° |
| 2026-04-20 18:37 | 22.17455 | 113.58217 | 359 ft | 136 kts | 161° |
| 2026-04-20 18:37 | 22.16560 | 113.58549 | 180 ft | 136 kts | 161° |
| 2026-04-20 18:38 | 22.15660 | 113.58880 | 30 ft | 135 kts | 161° |
| 2026-04-20 18:38 | 22.14955 | 113.59141 | 28 ft | 66 kts | 161° |
| 2026-04-20 18:38 | 22.14718 | 113.59226 | 27 ft | 19 kts | 161° |
| 2026-04-20 18:38 | 22.14641 | 113.59247 | 28 ft | 8 kts | 187° |
| 2026-04-20 18:39 | 22.14602 | 113.59216 | 28 ft | 8 kts | 234° |
| 2026-04-20 18:39 | 22.14578 | 113.59156 | 28 ft | 9 kts | 250° |
| 2026-04-20 18:39 | 22.14596 | 113.59089 | 28 ft | 10 kts | 319° |
| 2026-04-20 18:39 | 22.14667 | 113.59058 | 28 ft | 12 kts | 340° |
| 2026-04-20 18:40 | 22.14740 | 113.59013 | 29 ft | 13 kts | 312° |
| 2026-04-20 18:40 | 22.14792 | 113.58931 | 29 ft | 14 kts | 303° |
| 2026-04-20 18:40 | 22.14849 | 113.58838 | 29 ft | 15 kts | 303° |
| 2026-04-20 18:40 | 22.14910 | 113.58738 | 29 ft | 17 kts | 304° |
| 2026-04-20 18:41 | 22.14978 | 113.58630 | 29 ft | 18 kts | 304° |
| 2026-04-20 18:41 | 22.15049 | 113.58515 | 29 ft | 19 kts | 303° |
| 2026-04-20 18:41 | 22.15126 | 113.58392 | 29 ft | 20 kts | 303° |
| 2026-04-20 18:41 | 22.15206 | 113.58262 | 29 ft | 21 kts | 303° |
| 2026-04-20 18:42 | 22.15290 | 113.58127 | 29 ft | 22 kts | 303° |
| 2026-04-20 18:42 | 22.15377 | 113.57984 | 29 ft | 23 kts | 303° |
| 2026-04-20 18:42 | 22.15463 | 113.57847 | 29 ft | 16 kts | 304° |
| 2026-04-20 18:42 | 22.15499 | 113.57788 | 29 ft | 7 kts | 303° |
| 2026-04-20 18:43 | 22.15532 | 113.57735 | 29 ft | 10 kts | 303° |
| 2026-04-20 18:43 | 22.15573 | 113.57667 | 29 ft | 11 kts | 303° |
| 2026-04-20 18:43 | 22.15605 | 113.57620 | 29 ft | 7 kts | 312° |
| 2026-04-20 18:43 | 22.15638 | 113.57585 | 29 ft | 6 kts | 315° |
| 2026-04-20 18:44 | 22.15653 | 113.57568 | 29 ft | 2 kts | 314° |
| 2026-04-20 18:44 | 22.15666 | 113.57554 | 29 ft | 3 kts | 314° |
| 2026-04-20 18:44 | 22.15677 | 113.57541 | 29 ft | 2 kts | 314° |
| 2026-04-20 18:44 | 22.15681 | 113.57536 | 29 ft | 0 kts | 314° |
| 2026-04-20 18:45 | 22.15684 | 113.57533 | 29 ft | 1 kts | 314° |
| 2026-04-20 18:45 | 22.15687 | 113.57530 | 29 ft | 1 kts | 314° |
| 2026-04-20 18:45 | 22.15689 | 113.57528 | 29 ft | 0 kts | 314° |